Time;durP1;ratioP1;P1;durP2;ratioP2;P2;SDS_P1;SDS_P2;PMS_P1;PMS_P2;Temp;Humidity;BMP_temperature;BMP_pressure;BME280_temperature;BME280_humidity;BME280_pressure;Samples;Min_cycle;Max_cycle;Signal;HPM_P1;HPM_P2
2023/09/10 02:42:07;;;;;;;5.53;4.87;;;;;;;;;;4975636;28;20226;-35
2023/09/10 02:45:16;;;;;;;7.93;5.83;;;;;;;;;;4969690;28;20204;-36
2023/09/10 03:05:27;;;;;;;6.87;5.60;;;;;;;;;;4971164;28;20219;-35
2023/09/10 03:08:14;;;;;;;7.30;5.47;;;;;;;;;;4975468;28;20519;-35
2023/09/10 03:11:05;;;;;;;7.73;5.57;;;;;;;;;;4969344;28;20235;-33
2023/09/10 03:13:49;;;;;;;10.57;5.67;;;;;;;;;;4976176;28;20250;-35
2023/09/10 03:16:35;;;;;;;6.80;5.47;;;;;;;;;;4976348;28;20208;-33
2023/09/10 03:19:20;;;;;;;6.47;5.30;;;;;;;;;;4971483;28;20261;-35
2023/09/10 03:25:03;;;;;;;5.77;5.13;;;;;;;;;;5635497;23;20227;-35
2023/09/10 03:28:17;;;;;;;10.57;5.30;;;;;;;;;;4984954;28;20254;-34
2023/09/10 03:37:06;;;;;;;6.60;5.93;;;;;;;;;;4976580;28;20219;-33
2023/09/10 03:39:43;;;;;;;8.85;5.78;;;;;;;;;;4968679;28;20239;-34
2023/09/10 03:42:19;;;;;;;8.87;6.10;;;;;;;;;;4970030;28;20212;-32
2023/09/10 03:45:05;;;;;;;5.97;5.33;;;;;;;;;;4978629;28;20222;-36
2023/09/10 03:47:59;;;;;;;6.47;5.30;;;;;;;;;;4968461;28;20209;-34
2023/09/10 03:50:33;;;;;;;7.53;5.13;;;;;;;;;;4973491;28;20235;-33
2023/09/10 03:53:30;;;;;;;6.97;6.00;;;;;;;;;;4962648;28;20236;-34
2023/09/10 03:56:25;;;;;;;8.00;5.93;;;;;;;;;;4967405;28;20236;-34
2023/09/10 03:59:16;;;;;;;8.07;5.30;;;;;;;;;;4977665;28;20264;-37
2023/09/10 04:01:59;;;;;;;9.03;6.03;;;;;;;;;;4977709;28;20311;-37
2023/09/10 04:04:46;;;;;;;5.83;5.20;;;;;;;;;;4976479;28;20374;-33
2023/09/10 04:07:20;;;;;;;7.10;5.77;;;;;;;;;;4971344;28;20661;-33
2023/09/10 04:10:01;;;;;;;6.57;5.67;;;;;;;;;;4968720;28;20238;-34
2023/09/10 04:19:00;;;;;;;6.77;5.27;;;;;;;;;;5230459;22;20247;-29
2023/09/10 04:21:40;;;;;;;6.87;5.20;;;;;;;;;;4957904;28;20220;-33
2023/09/10 04:24:26;;;;;;;7.30;5.97;;;;;;;;;;4965584;28;20219;-35
2023/09/10 04:38:14;;;;;;;7.00;5.47;;;;;;;;;;4982945;28;20226;-33
2023/09/10 04:40:51;;;;;;;6.13;5.53;;;;;;;;;;4986722;28;20234;-33
2023/09/10 04:43:29;;;;;;;7.50;5.43;;;;;;;;;;4988915;28;20306;-35
2023/09/10 04:46:07;;;;;;;6.13;5.53;;;;;;;;;;4990913;28;20299;-34
2023/09/10 04:48:54;;;;;;;6.37;5.73;;;;;;;;;;4990920;28;20214;-35
2023/09/10 04:51:48;;;;;;;8.10;5.57;;;;;;;;;;4994240;28;20207;-35
2023/09/10 04:54:41;;;;;;;6.47;5.47;;;;;;;;;;4983700;28;20270;-35
2023/09/10 04:57:25;;;;;;;6.70;5.80;;;;;;;;;;4980870;28;20203;-35
2023/09/10 04:59:59;;;;;;;5.73;5.20;;;;;;;;;;4991406;23;20244;-36
2023/09/10 05:02:39;;;;;;;5.73;4.83;;;;;;;;;;4964221;28;20238;-34
2023/09/10 05:05:15;;;;;;;5.63;5.13;;;;;;;;;;4966486;28;20207;-33
2023/09/10 05:07:56;;;;;;;5.63;5.03;;;;;;;;;;4974140;28;20210;-32
2023/09/10 05:10:35;;;;;;;5.20;4.70;;;;;;;;;;4951049;28;20243;-34
2023/09/10 05:13:10;;;;;;;6.87;4.63;;;;;;;;;;4947139;29;20300;-37
2023/09/10 05:15:48;;;;;;;6.10;5.17;;;;;;;;;;4957872;28;20212;-33
2023/09/10 05:20:52;;;;;;;7.03;5.13;;;;;;;;;;5219456;23;20289;-29
2023/09/10 05:23:19;;;;;;;5.90;4.73;;;;;;;;;;4984588;28;20234;-28
2023/09/10 05:25:48;;;;;;;7.23;4.83;;;;;;;;;;4977943;28;20216;-31
2023/09/10 05:28:15;;;;;;;8.30;5.30;;;;;;;;;;4988341;28;20600;-29
2023/09/10 05:30:42;;;;;;;5.23;4.77;;;;;;;;;;4985775;28;20227;-31
2023/09/10 05:33:09;;;;;;;5.83;4.43;;;;;;;;;;4983419;28;20234;-29
2023/09/10 05:35:37;;;;;;;6.07;4.97;;;;;;;;;;4988462;28;20259;-27
2023/09/10 05:38:04;;;;;;;5.77;4.93;;;;;;;;;;4996137;28;20203;-32
2023/09/10 05:40:36;;;;;;;6.30;4.80;;;;;;;;;;4979774;28;20231;-30
2023/09/10 05:43:05;;;;;;;6.50;4.93;;;;;;;;;;4976061;28;20201;-29
2023/09/10 05:45:33;;;;;;;5.43;4.43;;;;;;;;;;4990931;28;20297;-33
2023/09/10 05:48:00;;;;;;;5.33;4.83;;;;;;;;;;4988790;28;20275;-30
2023/09/10 05:50:27;;;;;;;6.47;5.03;;;;;;;;;;4987341;28;20237;-28
2023/09/10 05:52:56;;;;;;;6.37;4.70;;;;;;;;;;4974644;28;20237;-31
2023/09/10 05:55:24;;;;;;;5.20;4.77;;;;;;;;;;4976109;28;20274;-29
2023/09/10 05:57:52;;;;;;;6.33;5.07;;;;;;;;;;4989265;28;20216;-29
2023/09/10 06:00:21;;;;;;;4.87;4.47;;;;;;;;;;4990200;28;20231;-31
2023/09/10 06:02:49;;;;;;;4.77;4.30;;;;;;;;;;4994725;28;20297;-30
2023/09/10 06:05:16;;;;;;;6.90;4.80;;;;;;;;;;4990098;28;20208;-32
2023/09/10 06:07:44;;;;;;;5.40;4.73;;;;;;;;;;4986822;28;20213;-31
2023/09/10 06:10:11;;;;;;;6.07;4.70;;;;;;;;;;4985143;28;20227;-30
2023/09/10 06:12:38;;;;;;;5.90;5.20;;;;;;;;;;4984298;28;20238;-33
2023/09/10 06:15:07;;;;;;;7.00;5.00;;;;;;;;;;4982043;28;20668;-29
2023/09/10 06:17:35;;;;;;;8.40;5.33;;;;;;;;;;4994718;28;20295;-31
2023/09/10 06:20:03;;;;;;;5.70;5.00;;;;;;;;;;4988419;28;20307;-30
2023/09/10 06:22:31;;;;;;;6.03;5.30;;;;;;;;;;4996910;28;20208;-31
2023/09/10 06:24:58;;;;;;;5.83;5.13;;;;;;;;;;4988165;28;20207;-29
2023/09/10 06:27:25;;;;;;;8.27;5.10;;;;;;;;;;4988700;28;20211;-29
2023/09/10 06:29:52;;;;;;;6.77;5.57;;;;;;;;;;4985149;28;20232;-29
2023/09/10 06:32:19;;;;;;;7.30;5.53;;;;;;;;;;4987368;28;20214;-31
2023/09/10 06:34:48;;;;;;;6.87;5.80;;;;;;;;;;4981849;28;20210;-30
2023/09/10 06:37:15;;;;;;;6.10;5.27;;;;;;;;;;4989858;28;20203;-30
2023/09/10 06:39:42;;;;;;;6.00;5.40;;;;;;;;;;4982798;28;20246;-28
2023/09/10 06:42:11;;;;;;;6.83;6.13;;;;;;;;;;4984223;28;20207;-30
2023/09/10 06:44:42;;;;;;;5.87;5.27;;;;;;;;;;4983842;28;20204;-30
2023/09/10 06:47:09;;;;;;;6.83;6.20;;;;;;;;;;4983030;28;20209;-32
2023/09/10 06:49:39;;;;;;;10.13;6.00;;;;;;;;;;4983564;28;20314;-27
2023/09/10 06:52:08;;;;;;;6.80;6.10;;;;;;;;;;4976421;28;20218;-30
2023/09/10 06:54:35;;;;;;;6.30;5.63;;;;;;;;;;4978051;28;20226;-31
2023/09/10 06:57:03;;;;;;;6.20;5.37;;;;;;;;;;4994047;28;20207;-31
2023/09/10 06:59:30;;;;;;;8.87;5.93;;;;;;;;;;4991605;28;20306;-31
2023/09/10 07:01:57;;;;;;;6.50;5.80;;;;;;;;;;4986781;28;20214;-29
2023/09/10 07:04:25;;;;;;;7.65;6.03;;;;;;;;;;4988169;28;20196;-40
2023/09/10 07:06:53;;;;;;;7.93;6.33;;;;;;;;;;4986882;28;20231;-30
2023/09/10 07:09:22;;;;;;;6.50;5.53;;;;;;;;;;4992272;28;20302;-29
2023/09/10 07:11:50;;;;;;;7.23;6.47;;;;;;;;;;4992039;28;20239;-31
2023/09/10 07:14:17;;;;;;;7.10;6.23;;;;;;;;;;4993196;28;20237;-27
2023/09/10 07:16:44;;;;;;;7.67;6.03;;;;;;;;;;4989301;28;20208;-30
2023/09/10 07:19:12;;;;;;;8.73;6.30;;;;;;;;;;4982846;28;20228;-30
2023/09/10 07:21:43;;;;;;;7.23;6.17;;;;;;;;;;4971584;28;20215;-27
2023/09/10 07:24:10;;;;;;;7.50;5.73;;;;;;;;;;4967019;28;20224;-28
2023/09/10 07:26:39;;;;;;;7.23;6.37;;;;;;;;;;4968443;28;20292;-29
2023/09/10 07:29:06;;;;;;;7.07;6.37;;;;;;;;;;4987095;28;20297;-30
2023/09/10 07:31:34;;;;;;;7.65;6.53;;;;;;;;;;4972199;28;20215;-30
2023/09/10 07:34:01;;;;;;;8.45;6.68;;;;;;;;;;4965913;28;20228;-31
2023/09/10 07:36:35;;;;;;;7.63;6.80;;;;;;;;;;4973978;28;20272;-30
2023/09/10 07:39:03;;;;;;;9.30;7.07;;;;;;;;;;4970524;28;20228;-29
2023/09/10 07:41:30;;;;;;;8.77;7.05;;;;;;;;;;4973353;28;20320;-30
2023/09/10 07:43:58;;;;;;;7.68;6.38;;;;;;;;;;4974156;28;20235;-30
2023/09/10 07:46:25;;;;;;;8.90;7.57;;;;;;;;;;4970442;28;20205;-32
2023/09/10 07:48:53;;;;;;;10.43;7.45;;;;;;;;;;4971006;28;20201;-32
2023/09/10 07:51:20;;;;;;;10.10;7.37;;;;;;;;;;4968419;28;20212;-28
2023/09/10 07:53:47;;;;;;;11.13;7.07;;;;;;;;;;4966837;28;20228;-28
2023/09/10 07:56:14;;;;;;;8.70;6.30;;;;;;;;;;4970773;28;20208;-31
2023/09/10 07:58:42;;;;;;;7.75;6.93;;;;;;;;;;4971536;28;20264;-29
2023/09/10 08:01:10;;;;;;;12.00;6.87;;;;;;;;;;4968585;28;20219;-31
2023/09/10 08:03:38;;;;;;;10.43;6.30;;;;;;;;;;4968185;28;20224;-29
2023/09/10 08:06:06;;;;;;;9.10;7.83;;;;;;;;;;4970457;28;20215;-31
2023/09/10 08:08:33;;;;;;;9.70;8.10;;;;;;;;;;4971716;28;20208;-30
2023/09/10 08:11:00;;;;;;;9.75;7.60;;;;;;;;;;4964934;28;20208;-29
2023/09/10 08:13:27;;;;;;;10.27;7.47;;;;;;;;;;4968723;28;20262;-32
2023/09/10 08:15:54;;;;;;;8.80;7.50;;;;;;;;;;4967380;28;20204;-28
2023/09/10 08:18:23;;;;;;;8.75;7.18;;;;;;;;;;4970341;28;20335;-31
2023/09/10 08:20:50;;;;;;;7.57;6.63;;;;;;;;;;4978125;28;20235;-32
2023/09/10 08:23:17;;;;;;;7.95;7.18;;;;;;;;;;4975235;28;20214;-29
2023/09/10 08:25:44;;;;;;;9.15;6.90;;;;;;;;;;4973793;28;20655;-34
2023/09/10 08:28:11;;;;;;;8.57;6.88;;;;;;;;;;4989943;28;20199;-32
2023/09/10 08:30:38;;;;;;;8.05;7.13;;;;;;;;;;4977748;28;20232;-30
2023/09/10 08:33:06;;;;;;;6.90;6.25;;;;;;;;;;4978957;28;20208;-30
2023/09/10 08:35:46;;;;;;;7.95;6.40;;;;;;;;;;4984005;28;20218;-30
2023/09/10 08:38:13;;;;;;;16.25;7.47;;;;;;;;;;4978830;28;20326;-29
2023/09/10 08:40:44;;;;;;;9.95;6.65;;;;;;;;;;4986016;28;20223;-32
2023/09/10 08:43:12;;;;;;;11.02;7.20;;;;;;;;;;4999486;28;20242;-30
2023/09/10 08:45:40;;;;;;;8.30;6.70;;;;;;;;;;4998284;28;20206;-33
2023/09/10 08:48:07;;;;;;;9.15;6.88;;;;;;;;;;4982920;28;20206;-29
2023/09/10 08:50:35;;;;;;;12.82;7.20;;;;;;;;;;4984499;28;20231;-31
2023/09/10 08:53:05;;;;;;;7.55;6.85;;;;;;;;;;4986950;28;20200;-30
2023/09/10 08:55:34;;;;;;;8.25;7.07;;;;;;;;;;4979249;28;20212;-30
2023/09/10 08:58:02;;;;;;;12.00;7.22;;;;;;;;;;4986865;28;20213;-29
2023/09/10 09:00:30;;;;;;;8.10;6.70;;;;;;;;;;4987903;28;20235;-32
2023/09/10 09:02:57;;;;;;;7.93;6.78;;;;;;;;;;4986875;28;20237;-30
2023/09/10 09:05:25;;;;;;;10.30;6.90;;;;;;;;;;4988742;28;20288;-32
2023/09/10 09:07:54;;;;;;;11.73;7.22;;;;;;;;;;4986762;28;20614;-32
2023/09/10 09:10:27;;;;;;;9.45;6.85;;;;;;;;;;4978929;28;20234;-32
2023/09/10 09:12:57;;;;;;;10.65;6.72;;;;;;;;;;4989572;28;20222;-31
2023/09/10 09:15:25;;;;;;;6.95;6.22;;;;;;;;;;4990419;28;20233;-32
2023/09/10 09:17:52;;;;;;;7.63;6.32;;;;;;;;;;4986855;28;20239;-29
2023/09/10 09:20:20;;;;;;;8.63;6.18;;;;;;;;;;4983202;28;20243;-29
2023/09/10 09:22:49;;;;;;;7.80;6.22;;;;;;;;;;4980044;28;20318;-29
2023/09/10 09:25:17;;;;;;;7.70;6.45;;;;;;;;;;4974973;28;20202;-31
2023/09/10 09:27:46;;;;;;;7.47;6.70;;;;;;;;;;4986692;28;20214;-29
2023/09/10 09:30:13;;;;;;;8.52;7.03;;;;;;;;;;4980698;28;20441;-31
2023/09/10 09:32:40;;;;;;;8.75;6.85;;;;;;;;;;4987382;28;20214;-30
2023/09/10 09:35:10;;;;;;;7.88;6.28;;;;;;;;;;4985881;28;20225;-30
2023/09/10 09:37:38;;;;;;;11.55;5.82;;;;;;;;;;4981333;28;20214;-31
2023/09/10 09:40:09;;;;;;;5.63;5.13;;;;;;;;;;4984003;28;20225;-30
2023/09/10 09:42:37;;;;;;;10.10;5.50;;;;;;;;;;4985292;28;20210;-33
2023/09/10 09:45:05;;;;;;;13.82;5.78;;;;;;;;;;4985574;28;20210;-31
2023/09/10 09:47:33;;;;;;;9.35;6.03;;;;;;;;;;4985187;28;20301;-29
2023/09/10 09:50:00;;;;;;;11.13;6.20;;;;;;;;;;4994443;28;20324;-32
2023/09/10 09:52:27;;;;;;;7.20;5.95;;;;;;;;;;4984784;28;20224;-29
2023/09/10 09:54:54;;;;;;;8.80;5.97;;;;;;;;;;4981454;28;20303;-32
2023/09/10 09:57:21;;;;;;;13.45;5.95;;;;;;;;;;4984180;28;20218;-31
2023/09/10 09:59:50;;;;;;;8.18;5.53;;;;;;;;;;4989915;28;20237;-30
2023/09/10 10:02:19;;;;;;;6.90;5.20;;;;;;;;;;4989975;28;20207;-29
2023/09/10 10:04:46;;;;;;;6.38;5.30;;;;;;;;;;4984563;28;20312;-29
2023/09/10 10:07:14;;;;;;;6.35;5.75;;;;;;;;;;4991703;28;20219;-34
2023/09/10 10:09:42;;;;;;;8.15;5.93;;;;;;;;;;4983238;28;20232;-30
2023/09/10 10:12:10;;;;;;;7.43;6.03;;;;;;;;;;4988120;28;20213;-31
2023/09/10 10:14:37;;;;;;;10.15;6.00;;;;;;;;;;4987118;28;20258;-31
2023/09/10 10:17:05;;;;;;;8.82;5.88;;;;;;;;;;4989738;28;20258;-31
2023/09/10 10:19:34;;;;;;;6.90;6.00;;;;;;;;;;4985888;28;20244;-31
2023/09/10 10:22:04;;;;;;;7.15;5.57;;;;;;;;;;4988007;28;20301;-33
2023/09/10 10:24:33;;;;;;;8.25;6.15;;;;;;;;;;4974397;28;20205;-32
2023/09/10 10:27:02;;;;;;;8.88;6.20;;;;;;;;;;4984077;28;20207;-32
2023/09/10 10:29:29;;;;;;;7.32;6.55;;;;;;;;;;4989809;28;20232;-30
2023/09/10 10:32:01;;;;;;;8.93;6.47;;;;;;;;;;4976960;28;20240;-32
2023/09/10 10:34:28;;;;;;;10.77;6.55;;;;;;;;;;4994587;28;20219;-32
2023/09/10 10:36:59;;;;;;;6.32;5.80;;;;;;;;;;4994530;28;20202;-32
2023/09/10 10:39:30;;;;;;;10.80;7.25;;;;;;;;;;4977168;28;20230;-32
2023/09/10 10:41:58;;;;;;;9.50;6.38;;;;;;;;;;4992698;28;20213;-30
2023/09/10 10:44:26;;;;;;;7.97;6.85;;;;;;;;;;4979392;28;20207;-30
2023/09/10 10:46:58;;;;;;;8.20;6.28;;;;;;;;;;4987296;28;20239;-32
2023/09/10 10:49:25;;;;;;;7.47;6.65;;;;;;;;;;4990803;28;20225;-31
2023/09/10 10:51:56;;;;;;;6.68;6.07;;;;;;;;;;4979727;28;20212;-32
2023/09/10 10:54:25;;;;;;;8.00;6.68;;;;;;;;;;4977703;28;20226;-30
2023/09/10 10:56:53;;;;;;;7.82;6.57;;;;;;;;;;4990370;28;20714;-33
2023/09/10 10:59:20;;;;;;;10.75;6.65;;;;;;;;;;4988986;28;20231;-30
2023/09/10 11:02:02;;;;;;;11.70;7.18;;;;;;;;;;4974462;28;20203;-32
2023/09/10 11:04:30;;;;;;;8.77;6.32;;;;;;;;;;4982776;28;20209;-30
2023/09/10 11:07:17;;;;;;;8.15;6.30;;;;;;;;;;4979079;28;20275;-30
2023/09/10 11:09:47;;;;;;;9.02;6.40;;;;;;;;;;4980918;28;20223;-30
2023/09/10 11:12:15;;;;;;;8.05;6.25;;;;;;;;;;4981601;28;20224;-30
2023/09/10 11:15:12;;;;;;;10.40;6.28;;;;;;;;;;4979949;28;20221;-28
2023/09/10 11:17:39;;;;;;;8.35;6.78;;;;;;;;;;4927938;29;20220;-31
2023/09/10 11:20:08;;;;;;;8.90;6.72;;;;;;;;;;4966635;28;20235;-31
2023/09/10 11:25:14;;;;;;;6.88;6.15;;;;;;;;;;5302606;23;20232;-32
2023/09/10 11:27:41;;;;;;;7.05;6.30;;;;;;;;;;5004432;28;20236;-33
2023/09/10 11:30:10;;;;;;;8.20;6.30;;;;;;;;;;5009730;28;20745;-31
2023/09/10 11:32:37;;;;;;;7.65;6.65;;;;;;;;;;5004450;28;20218;-32
2023/09/10 11:35:23;;;;;;;8.30;6.45;;;;;;;;;;4998072;28;20226;-33
2023/09/10 11:37:51;;;;;;;7.88;6.22;;;;;;;;;;5008167;28;20211;-31
2023/09/10 11:40:21;;;;;;;6.43;5.82;;;;;;;;;;4998803;28;20231;-30
2023/09/10 11:42:49;;;;;;;6.35;5.72;;;;;;;;;;4996634;28;20211;-35
2023/09/10 11:45:17;;;;;;;8.40;6.28;;;;;;;;;;4999858;28;20205;-29
2023/09/10 11:47:45;;;;;;;6.25;5.32;;;;;;;;;;4995922;28;20442;-32
2023/09/10 11:50:13;;;;;;;8.43;5.63;;;;;;;;;;5005868;28;20232;-31
2023/09/10 11:52:41;;;;;;;9.35;5.90;;;;;;;;;;5005056;28;20217;-32
2023/09/10 11:55:10;;;;;;;6.05;5.45;;;;;;;;;;4995877;28;20741;-32
2023/09/10 11:57:38;;;;;;;8.10;6.00;;;;;;;;;;5002136;28;20206;-30
2023/09/10 12:00:06;;;;;;;5.78;5.03;;;;;;;;;;5002201;28;20240;-28
2023/09/10 12:02:34;;;;;;;7.05;5.55;;;;;;;;;;4995968;28;20260;-29
2023/09/10 12:05:02;;;;;;;7.15;5.30;;;;;;;;;;4996326;28;20297;-32
2023/09/10 12:07:29;;;;;;;8.30;6.13;;;;;;;;;;4994710;28;20216;-30
2023/09/10 12:09:56;;;;;;;8.30;5.78;;;;;;;;;;4998469;28;20227;-30
2023/09/10 12:12:26;;;;;;;6.63;5.07;;;;;;;;;;5002264;28;20207;-32
2023/09/10 12:14:54;;;;;;;6.25;5.65;;;;;;;;;;5001737;28;20230;-33
2023/09/10 12:17:22;;;;;;;8.63;5.45;;;;;;;;;;4992376;28;20278;-33
2023/09/10 12:19:50;;;;;;;5.25;4.80;;;;;;;;;;5003657;28;20230;-32
2023/09/10 12:22:19;;;;;;;6.68;5.13;;;;;;;;;;5002207;28;20222;-30
2023/09/10 12:24:46;;;;;;;5.45;4.72;;;;;;;;;;4998248;28;20286;-34
2023/09/10 12:27:14;;;;;;;8.80;5.10;;;;;;;;;;5002615;28;20761;-31
2023/09/10 12:29:41;;;;;;;5.88;5.28;;;;;;;;;;5002879;28;20509;-29
2023/09/10 12:32:10;;;;;;;7.38;5.05;;;;;;;;;;4996081;28;20210;-29
2023/09/10 12:34:38;;;;;;;7.75;5.25;;;;;;;;;;5001137;28;20237;-29
2023/09/10 12:37:05;;;;;;;6.60;5.43;;;;;;;;;;4996355;28;20232;-31
2023/09/10 12:39:33;;;;;;;6.82;4.60;;;;;;;;;;5004659;28;20289;-30
2023/09/10 12:42:02;;;;;;;6.57;5.25;;;;;;;;;;4996532;28;20203;-32
2023/09/10 12:44:29;;;;;;;8.57;5.13;;;;;;;;;;5003373;28;20210;-30
2023/09/10 12:46:57;;;;;;;6.07;5.20;;;;;;;;;;5001278;28;20234;-30
2023/09/10 12:49:26;;;;;;;7.28;5.50;;;;;;;;;;4994919;28;20227;-32
2023/09/10 12:51:53;;;;;;;8.05;5.38;;;;;;;;;;4995306;28;20291;-28
2023/09/10 12:54:21;;;;;;;5.45;4.95;;;;;;;;;;4991172;28;20215;-29
2023/09/10 12:56:51;;;;;;;7.47;5.18;;;;;;;;;;5002888;28;20295;-32
2023/09/10 12:59:18;;;;;;;5.50;5.00;;;;;;;;;;5001058;28;20282;-33
2023/09/10 13:01:45;;;;;;;5.95;5.18;;;;;;;;;;4999044;28;20207;-31
2023/09/10 13:04:12;;;;;;;5.45;4.95;;;;;;;;;;4997393;28;20200;-32
2023/09/10 13:06:42;;;;;;;7.38;5.10;;;;;;;;;;4998564;28;20257;-28
2023/09/10 13:09:09;;;;;;;5.47;4.93;;;;;;;;;;4990675;28;20227;-31
2023/09/10 13:11:37;;;;;;;7.88;5.15;;;;;;;;;;4999254;28;20200;-31
2023/09/10 13:14:04;;;;;;;7.07;4.80;;;;;;;;;;4997949;28;20308;-32
2023/09/10 13:16:31;;;;;;;6.40;5.60;;;;;;;;;;4994400;28;20222;-28
2023/09/10 13:18:58;;;;;;;7.43;5.03;;;;;;;;;;5003298;28;20233;-29
2023/09/10 13:21:25;;;;;;;7.05;5.05;;;;;;;;;;5006085;28;20699;-34
2023/09/10 13:23:54;;;;;;;7.70;5.20;;;;;;;;;;4992177;28;20208;-32
2023/09/10 13:26:21;;;;;;;5.30;4.80;;;;;;;;;;4998943;28;20240;-32
2023/09/10 13:28:48;;;;;;;5.90;4.70;;;;;;;;;;4999500;28;20205;-33
2023/09/10 13:31:19;;;;;;;8.60;5.00;;;;;;;;;;5005285;28;20225;-33
2023/09/10 13:33:46;;;;;;;6.80;4.72;;;;;;;;;;5000206;28;20199;-30
2023/09/10 13:36:13;;;;;;;8.75;5.00;;;;;;;;;;5002581;28;20229;-31
2023/09/10 13:38:40;;;;;;;5.68;4.60;;;;;;;;;;5003406;28;20205;-30
2023/09/10 13:41:09;;;;;;;5.32;4.53;;;;;;;;;;4995852;28;20226;-30
2023/09/10 13:43:36;;;;;;;6.90;5.18;;;;;;;;;;5003824;28;20199;-34
2023/09/10 13:46:03;;;;;;;5.88;4.32;;;;;;;;;;5000572;28;20725;-29
2023/09/10 13:48:30;;;;;;;6.15;5.03;;;;;;;;;;4995731;28;20203;-33
2023/09/10 13:50:57;;;;;;;5.95;4.85;;;;;;;;;;5003437;28;20857;-31
2023/09/10 13:53:25;;;;;;;5.70;5.20;;;;;;;;;;5003429;28;20210;-30
2023/09/10 13:55:52;;;;;;;6.15;5.50;;;;;;;;;;4994965;28;20224;-33
2023/09/10 13:58:20;;;;;;;4.60;4.20;;;;;;;;;;4998451;28;20519;-30
2023/09/10 14:00:47;;;;;;;5.63;4.72;;;;;;;;;;5006327;28;20223;-31
2023/09/10 14:03:14;;;;;;;5.38;4.40;;;;;;;;;;5009699;28;20219;-32
2023/09/10 14:05:42;;;;;;;5.22;4.20;;;;;;;;;;4998338;28;20572;-32
2023/09/10 14:08:09;;;;;;;6.20;4.85;;;;;;;;;;4999929;28;20203;-31
2023/09/10 14:10:36;;;;;;;6.28;4.65;;;;;;;;;;4998184;28;20223;-32
2023/09/10 14:13:03;;;;;;;7.55;4.13;;;;;;;;;;4994756;28;20218;-31
2023/09/10 14:15:31;;;;;;;5.53;5.03;;;;;;;;;;4996020;28;20227;-32
2023/09/10 14:17:58;;;;;;;8.10;4.40;;;;;;;;;;5008299;28;20239;-33
2023/09/10 14:20:26;;;;;;;5.28;4.72;;;;;;;;;;5010796;28;20319;-32
2023/09/10 14:22:53;;;;;;;5.75;5.10;;;;;;;;;;5014816;28;20209;-29
2023/09/10 14:25:22;;;;;;;5.35;4.80;;;;;;;;;;5003341;28;20288;-33
2023/09/10 14:27:49;;;;;;;7.93;4.53;;;;;;;;;;5011948;28;20729;-34
2023/09/10 14:30:16;;;;;;;6.45;5.10;;;;;;;;;;5005498;28;20242;-30
2023/09/10 14:32:45;;;;;;;5.20;4.32;;;;;;;;;;5009030;28;20209;-31
2023/09/10 14:35:12;;;;;;;6.35;4.88;;;;;;;;;;4999969;28;20278;-31
2023/09/10 14:37:40;;;;;;;5.95;4.50;;;;;;;;;;4995226;28;20223;-30
2023/09/10 14:40:09;;;;;;;5.05;4.53;;;;;;;;;;5001262;28;20219;-33
2023/09/10 14:42:36;;;;;;;5.38;4.35;;;;;;;;;;5002779;28;20211;-30
2023/09/10 14:45:04;;;;;;;4.75;4.07;;;;;;;;;;4999830;28;20376;-28
2023/09/10 14:47:33;;;;;;;6.28;4.95;;;;;;;;;;5001592;28;20208;-31
2023/09/10 14:50:01;;;;;;;5.60;4.80;;;;;;;;;;5000440;28;20234;-32
2023/09/10 14:52:28;;;;;;;5.22;4.28;;;;;;;;;;4994356;28;20220;-32
2023/09/10 14:54:57;;;;;;;12.52;4.88;;;;;;;;;;4999624;28;20380;-31
2023/09/10 14:57:24;;;;;;;7.60;4.90;;;;;;;;;;5002556;28;20235;-29
2023/09/10 14:59:52;;;;;;;5.78;4.30;;;;;;;;;;4998331;28;20685;-31
2023/09/10 15:02:19;;;;;;;8.13;4.57;;;;;;;;;;4994187;28;20218;-28
2023/09/10 15:04:46;;;;;;;7.10;4.30;;;;;;;;;;5003001;28;20207;-31
2023/09/10 15:07:14;;;;;;;5.88;5.32;;;;;;;;;;5003275;28;20685;-31
2023/09/10 15:09:42;;;;;;;8.70;5.07;;;;;;;;;;5005034;28;20219;-33
2023/09/10 15:12:09;;;;;;;6.18;4.50;;;;;;;;;;5004170;28;20676;-33
2023/09/10 15:14:36;;;;;;;8.07;5.13;;;;;;;;;;5006808;28;20213;-30
2023/09/10 15:17:03;;;;;;;7.35;4.63;;;;;;;;;;4996236;28;20229;-30
2023/09/10 15:19:30;;;;;;;6.03;4.60;;;;;;;;;;4999781;28;20234;-31
2023/09/10 15:21:59;;;;;;;6.70;5.38;;;;;;;;;;5000099;28;20696;-29
2023/09/10 15:24:27;;;;;;;6.43;4.30;;;;;;;;;;5001824;28;20506;-30
2023/09/10 15:26:54;;;;;;;8.00;4.75;;;;;;;;;;5004606;28;20199;-30
2023/09/10 15:29:22;;;;;;;9.80;4.45;;;;;;;;;;5002187;28;20235;-29
2023/09/10 15:31:49;;;;;;;6.80;5.10;;;;;;;;;;4999950;28;20687;-30
2023/09/10 15:34:16;;;;;;;5.28;4.38;;;;;;;;;;5001107;28;20239;-27
2023/09/10 15:36:43;;;;;;;6.25;4.90;;;;;;;;;;4992014;28;20220;-34
2023/09/10 15:39:11;;;;;;;6.15;4.47;;;;;;;;;;4993401;28;20223;-29
2023/09/10 15:41:42;;;;;;;5.05;4.55;;;;;;;;;;4999971;28;20239;-28
2023/09/10 15:44:09;;;;;;;7.00;4.63;;;;;;;;;;5006267;28;20649;-28
2023/09/10 15:46:38;;;;;;;4.70;4.25;;;;;;;;;;5000389;28;20207;-30
2023/09/10 15:49:05;;;;;;;5.45;4.32;;;;;;;;;;5000161;28;20227;-29
2023/09/10 15:51:32;;;;;;;5.55;4.72;;;;;;;;;;5000415;28;20200;-30
2023/09/10 15:54:00;;;;;;;6.88;4.45;;;;;;;;;;4995260;28;20211;-30
2023/09/10 15:56:27;;;;;;;5.50;4.40;;;;;;;;;;4992105;28;20694;-30
2023/09/10 15:58:55;;;;;;;4.07;3.78;;;;;;;;;;5005465;28;20227;-30
2023/09/10 16:01:23;;;;;;;6.60;4.43;;;;;;;;;;5002925;28;20200;-33
2023/09/10 16:03:50;;;;;;;4.93;4.53;;;;;;;;;;4998566;28;20200;-31
2023/09/10 16:06:17;;;;;;;4.85;4.45;;;;;;;;;;4994715;28;20210;-30
2023/09/10 16:08:44;;;;;;;8.07;4.47;;;;;;;;;;5004750;28;20195;-30
2023/09/10 16:11:14;;;;;;;7.72;4.13;;;;;;;;;;5001466;28;20231;-31
2023/09/10 16:13:43;;;;;;;7.00;4.32;;;;;;;;;;5003631;28;20214;-32
2023/09/10 16:16:11;;;;;;;6.22;4.45;;;;;;;;;;5004803;28;20223;-33
2023/09/10 16:18:38;;;;;;;7.22;4.78;;;;;;;;;;5001692;28;20357;-32
2023/09/10 16:21:06;;;;;;;7.68;5.13;;;;;;;;;;5002893;28;20559;-30
2023/09/10 16:23:33;;;;;;;6.25;4.63;;;;;;;;;;5000925;28;20559;-28
2023/09/10 16:26:01;;;;;;;5.32;4.60;;;;;;;;;;4999581;28;20200;-29
2023/09/10 16:28:28;;;;;;;6.57;4.03;;;;;;;;;;5000780;28;20219;-32
2023/09/10 16:30:55;;;;;;;7.38;4.40;;;;;;;;;;4997833;28;20266;-29
2023/09/10 16:33:23;;;;;;;6.63;4.50;;;;;;;;;;4999054;28;20207;-33
2023/09/10 16:35:51;;;;;;;5.43;4.70;;;;;;;;;;5008588;28;20241;-30
2023/09/10 16:38:18;;;;;;;5.80;4.47;;;;;;;;;;5000282;28;20212;-30
2023/09/10 16:40:45;;;;;;;5.18;4.35;;;;;;;;;;5001116;28;20674;-29
2023/09/10 16:43:12;;;;;;;6.50;4.65;;;;;;;;;;5009883;28;20207;-31
2023/09/10 16:45:39;;;;;;;9.82;4.50;;;;;;;;;;4997663;28;20646;-31
2023/09/10 16:48:06;;;;;;;7.15;4.20;;;;;;;;;;4997610;28;20208;-29
2023/09/10 16:50:35;;;;;;;5.80;4.32;;;;;;;;;;4998566;28;20238;-28
2023/09/10 16:53:02;;;;;;;4.78;4.38;;;;;;;;;;5009718;28;20206;-29
2023/09/10 16:55:29;;;;;;;5.45;4.45;;;;;;;;;;4998089;28;20215;-27
2023/09/10 16:57:56;;;;;;;6.63;4.55;;;;;;;;;;5001594;28;20232;-31
2023/09/10 17:00:23;;;;;;;6.75;4.60;;;;;;;;;;4998777;28;20233;-28
2023/09/10 17:02:58;;;;;;;8.23;5.13;;;;;;;;;;5007376;28;20290;-28
2023/09/10 17:05:28;;;;;;;6.10;4.45;;;;;;;;;;4996351;28;20309;-28
2023/09/10 17:08:03;;;;;;;5.05;4.43;;;;;;;;;;5012493;28;20195;-32
2023/09/10 17:10:30;;;;;;;5.80;4.45;;;;;;;;;;4998653;28;20590;-29
2023/09/10 17:12:57;;;;;;;5.22;4.40;;;;;;;;;;5006330;28;20207;-28
2023/09/10 17:15:24;;;;;;;6.57;4.70;;;;;;;;;;5001972;28;20346;-31
2023/09/10 17:17:51;;;;;;;4.82;4.32;;;;;;;;;;5002449;28;20341;-29
2023/09/10 17:20:18;;;;;;;6.80;4.68;;;;;;;;;;5008820;28;20361;-30
2023/09/10 17:22:45;;;;;;;8.35;4.80;;;;;;;;;;4997401;28;20203;-30
2023/09/10 17:25:14;;;;;;;7.95;4.93;;;;;;;;;;4993028;28;20221;-30
2023/09/10 17:27:41;;;;;;;5.05;4.50;;;;;;;;;;4999200;28;20587;-32
2023/09/10 17:33:24;;;;;;;6.03;4.80;;;;;;;;;;4974206;28;20216;-37
2023/09/10 17:35:59;;;;;;;5.30;4.43;;;;;;;;;;4973783;28;20209;-38
2023/09/10 17:38:30;;;;;;;6.07;4.45;;;;;;;;;;4974362;28;20221;-38
2023/09/10 17:41:01;;;;;;;5.32;4.55;;;;;;;;;;4991592;28;20226;-34
2023/09/10 17:43:33;;;;;;;6.60;4.47;;;;;;;;;;4992038;28;20199;-38
2023/09/10 17:46:04;;;;;;;9.13;5.00;;;;;;;;;;4997003;28;20218;-35
2023/09/10 17:48:38;;;;;;;5.25;4.55;;;;;;;;;;4996068;28;20222;-34
2023/09/10 17:51:10;;;;;;;10.30;5.50;;;;;;;;;;4997916;28;20205;-34
2023/09/10 17:53:40;;;;;;;7.78;5.07;;;;;;;;;;4997152;28;20210;-34
2023/09/10 17:56:16;;;;;;;8.80;5.15;;;;;;;;;;4990300;28;20265;-35
2023/09/10 17:58:50;;;;;;;7.30;5.05;;;;;;;;;;5246730;23;20209;-40
2023/09/10 18:01:24;;;;;;;6.43;5.00;;;;;;;;;;4970627;28;20220;-43
2023/09/10 18:03:58;;;;;;;5.78;5.05;;;;;;;;;;4976385;28;20220;-43
2023/09/10 18:06:28;;;;;;;6.47;4.65;;;;;;;;;;4977220;28;20278;-41
2023/09/10 18:09:00;;;;;;;7.50;5.55;;;;;;;;;;4973378;28;20321;-40
2023/09/10 18:11:41;;;;;;;7.63;4.97;;;;;;;;;;4953362;28;20227;-42
2023/09/10 18:14:12;;;;;;;6.38;4.20;;;;;;;;;;4960431;28;20209;-42
2023/09/10 18:16:42;;;;;;;5.20;4.57;;;;;;;;;;4958634;28;20236;-45
2023/09/10 18:19:13;;;;;;;5.88;4.70;;;;;;;;;;4967135;28;20314;-44
2023/09/10 18:21:51;;;;;;;5.00;4.53;;;;;;;;;;4956848;28;20216;-45
2023/09/10 18:24:22;;;;;;;9.57;4.75;;;;;;;;;;4953081;28;20220;-42
2023/09/10 18:26:53;;;;;;;7.63;5.40;;;;;;;;;;4963943;28;20259;-43
2023/09/10 18:29:25;;;;;;;5.63;5.10;;;;;;;;;;4962391;28;20236;-44
2023/09/10 18:31:59;;;;;;;5.05;4.65;;;;;;;;;;4953296;28;20299;-46
2023/09/10 18:34:33;;;;;;;6.00;4.95;;;;;;;;;;4957962;28;20211;-42